This is the latest recevied weather packets stored in our database for station/object N2GWK. If no packets are shown the sender has not sent any weather packets the latest 10 day(s).
| Time | Temp. | Humidity | Pressure | Rain* | Wind** | Luminosity | Snow |
|---|---|---|---|---|---|---|---|
| 1777908333 | 20° C | 67% | 1012.1 hPa | 0 mm | - | - | - |
| 1777906519 | 18.33° C | 72% | 1012.3 hPa | 0 mm | - | - | - |
| 1777904141 | 17.22° C | 73% | 1012.2 hPa | 0 mm | - | - | - |
| 1777902337 | 15.56° C | 76% | 1012.7 hPa | 0 mm | - | - | - |
| 1777900523 | 13.89° C | 80% | 1013.1 hPa | 0 mm | - | - | - |
| 1777899353 | 13.33° C | 82% | 1013.5 hPa | 0 mm | - | - | - |
| 1777897552 | 12.22° C | 82% | 1013.6 hPa | 0 mm | - | - | - |
| 1777893930 | 12.22° C | 80% | 1012.8 hPa | 0 mm | - | - | - |
| 1777892117 | 11.67° C | 82% | 1013 hPa | 0 mm | - | - | - |
| 1777890317 | 12.22° C | 81% | 1013.6 hPa | 0 mm | - | - | - |
| 1777883728 | 12.22° C | 79% | 1012.5 hPa | 0 mm | - | - | - |
| 1777877729 | 12.22° C | 78% | 1012.8 hPa | 0 mm | - | - | - |
| 1777872928 | 11.67° C | 76% | 1014.2 hPa | 0 mm | - | - | - |
| 1777868717 | 10° C | 79% | 1014.5 hPa | 0 mm | - | - | - |
| 1777861538 | 11.11° C | 73% | 1015.6 hPa | 0 mm | - | - | - |
| 1777858526 | 12.78° C | 64% | 1014.7 hPa | 0 mm | - | - | - |
| 1777857930 | 13.33° C | 62% | 1014.8 hPa | 0 mm | - | - | - |
| 1777856121 | 14.44° C | 59% | 1014.7 hPa | 0 mm | - | - | - |
| 1777854916 | 15.56° C | 55% | 1014.7 hPa | 0 mm | - | - | - |
| 1777848919 | 20.56° C | 43% | 1015.4 hPa | 0 mm | - | - | - |
| 1777844726 | 19.44° C | 41% | 1016.4 hPa | 0 mm | - | - | - |
| 1777835721 | 19.44° C | 42% | 1018.8 hPa | 0 mm | - | - | - |
| 1777835144 | 18.33° C | 43% | 1018.9 hPa | 0 mm | - | - | - |
| 1777833921 | 18.89° C | 42% | 1019.2 hPa | 0 mm | - | - | - |
| 1777833338 | 18.33° C | 42% | 1019.4 hPa | 0 mm | - | - | - |
* Rain latest hour (hover to see other rain measurements)
** Current wind speed in m/s (hover to see current wind gust speed)